createdAt,value
2022-11-27T00:01:33.659Z,-2.02
2022-11-27T00:04:39.637Z,-2.42
2022-11-27T00:07:46.135Z,-2.45
2022-11-27T00:10:54.222Z,-2.98
2022-11-27T00:14:00.996Z,-3.18
2022-11-27T00:17:07.746Z,-2.91
2022-11-27T00:20:14.976Z,-2.64
2022-11-27T00:23:32.579Z,-1.80
2022-11-27T00:26:40.693Z,-2.51
2022-11-27T00:30:00.483Z,-2.74
2022-11-27T00:33:06.760Z,-2.44
2022-11-27T00:36:27.705Z,-2.24
2022-11-27T00:39:34.189Z,-2.13
2022-11-27T00:42:41.825Z,-1.61
2022-11-27T00:45:50.742Z,-1.51
2022-11-27T00:48:57.668Z,-1.70
2022-11-27T00:52:03.808Z,-1.31
2022-11-27T00:55:10.815Z,-1.39
2022-11-27T00:58:18.306Z,-1.48
2022-11-27T01:01:26.594Z,-1.62
2022-11-27T01:04:32.828Z,-2.28
2022-11-27T01:07:39.082Z,-2.49
2022-11-27T01:10:54.585Z,-2.08
2022-11-27T01:14:05.050Z,-3.09
2022-11-27T01:17:11.334Z,-3.23
2022-11-27T01:20:17.461Z,-3.20
2022-11-27T01:23:24.156Z,-2.88
2022-11-27T01:26:31.279Z,-2.53
2022-11-27T01:29:39.113Z,-3.32
2022-11-27T01:32:45.244Z,-3.34
2022-11-27T01:35:56.685Z,-2.28
2022-11-27T01:39:03.326Z,-2.43
2022-11-27T01:42:11.920Z,-2.17
2022-11-27T01:45:22.289Z,-1.49
2022-11-27T01:48:29.012Z,-1.52
2022-11-27T01:51:36.485Z,-1.18
2022-11-27T01:54:47.994Z,-1.39
2022-11-27T01:57:58.073Z,-1.00
2022-11-27T02:01:06.612Z,-1.27
2022-11-27T02:04:13.338Z,-1.55
2022-11-27T02:07:19.393Z,-1.80
2022-11-27T02:10:32.920Z,-1.37
2022-11-27T02:13:58.929Z,-1.51
2022-11-27T02:17:17.171Z,-1.52
2022-11-27T02:20:48.690Z,-1.55
2022-11-27T02:24:19.276Z,-1.60
2022-11-27T02:28:03.872Z,-1.82
2022-11-27T02:31:17.484Z,-1.33
2022-11-27T02:34:28.122Z,-1.28
2022-11-27T02:37:39.977Z,-1.20
2022-11-27T02:40:53.079Z,-0.92
2022-11-27T02:44:01.838Z,-1.20
2022-11-27T02:47:11.297Z,-1.98
2022-11-27T02:50:34.341Z,-1.93
2022-11-27T02:53:45.939Z,-1.78
2022-11-27T02:56:53.881Z,-1.84
2022-11-27T03:00:02.071Z,-2.00
2022-11-27T03:03:13.423Z,-1.69
2022-11-27T03:06:22.257Z,-1.88
2022-11-27T03:09:34.418Z,-2.35
2022-11-27T03:12:40.834Z,-1.91
2022-11-27T03:15:57.443Z,-1.61
2022-11-27T03:19:13.780Z,-1.33
2022-11-27T03:22:20.220Z,-1.61
2022-11-27T03:25:26.782Z,-1.25
2022-11-27T03:28:33.984Z,-1.20
2022-11-27T03:31:40.355Z,-1.60
2022-11-27T03:34:49.239Z,-1.42
2022-11-27T03:37:56.964Z,-1.17
2022-11-27T03:41:08.813Z,-1.35
2022-11-27T03:44:23.859Z,-0.92
2022-11-27T03:47:49.993Z,-0.94
2022-11-27T03:51:07.302Z,-0.62
2022-11-27T03:54:25.350Z,-0.80
2022-11-27T03:57:36.039Z,-0.76
2022-11-27T04:00:45.655Z,-0.95
2022-11-27T04:03:52.148Z,-0.97
2022-11-27T04:07:14.037Z,-1.03
2022-11-27T04:10:20.705Z,-1.01
2022-11-27T04:13:26.989Z,-1.68
2022-11-27T04:16:33.139Z,-1.71
2022-11-27T04:19:39.854Z,-2.03
2022-11-27T04:22:47.373Z,-2.06
2022-11-27T04:25:53.492Z,-1.84
2022-11-27T04:28:59.756Z,-1.14
2022-11-27T04:32:06.566Z,-1.18
2022-11-27T04:35:12.932Z,-1.05
2022-11-27T04:38:20.921Z,-0.88
2022-11-27T04:41:28.408Z,-0.99
2022-11-27T04:44:34.847Z,-1.24
2022-11-27T04:47:41.548Z,-1.24
2022-11-27T04:50:47.581Z,-1.14
2022-11-27T04:53:55.262Z,-1.24
2022-11-27T04:57:01.560Z,-1.37
2022-11-27T05:00:09.051Z,-1.08
2022-11-27T05:03:15.633Z,-1.39
2022-11-27T05:06:22.939Z,-1.43
2022-11-27T05:09:31.014Z,-1.96
2022-11-27T05:12:51.542Z,-1.95
2022-11-27T05:15:58.043Z,-2.02
2022-11-27T05:19:04.446Z,-1.91
2022-11-27T05:22:10.841Z,-1.73
2022-11-27T05:25:18.677Z,-2.07
2022-11-27T05:28:26.962Z,-2.11
2022-11-27T05:31:33.544Z,-1.98
2022-11-27T05:34:40.228Z,-2.06
2022-11-27T05:37:46.577Z,-1.88
2022-11-27T05:40:54.326Z,-1.27
2022-11-27T05:44:00.465Z,-1.37
2022-11-27T05:47:06.659Z,-1.14
2022-11-27T05:50:13.032Z,-1.20
2022-11-27T05:53:19.411Z,-0.96
2022-11-27T05:56:27.034Z,-1.30
2022-11-27T05:59:33.232Z,-1.69
2022-11-27T06:02:39.512Z,-1.85
2022-11-27T06:05:46.210Z,-1.66
2022-11-27T06:08:52.450Z,-1.58
2022-11-27T06:12:00.535Z,-1.12
2022-11-27T06:15:07.201Z,-0.89
2022-11-27T06:18:14.144Z,-1.00
2022-11-27T06:21:21.321Z,-0.88
2022-11-27T06:24:27.985Z,-0.65
2022-11-27T06:27:36.245Z,-0.44
2022-11-27T06:30:42.704Z,-0.62
2022-11-27T06:33:49.750Z,-0.82
2022-11-27T06:36:56.076Z,-1.30
2022-11-27T06:40:02.347Z,-0.85
2022-11-27T06:43:10.067Z,-1.53
2022-11-27T06:46:19.128Z,-1.26
2022-11-27T06:49:25.774Z,-0.83
2022-11-27T06:52:45.778Z,-0.40
2022-11-27T06:55:51.737Z,-0.36
2022-11-27T06:59:01.215Z,-0.60
2022-11-27T07:02:07.663Z,-0.10
2022-11-27T07:05:14.009Z,-0.32
2022-11-27T07:08:20.215Z,-0.29
2022-11-27T07:11:28.624Z,0.48
2022-11-27T07:14:36.241Z,0.38
2022-11-27T07:17:42.835Z,0.81
2022-11-27T07:20:56.421Z,0.30
2022-11-27T07:24:03.183Z,0.84
2022-11-27T07:27:09.307Z,0.69
2022-11-27T07:30:17.469Z,0.95
2022-11-27T07:33:23.792Z,1.04
2022-11-27T07:36:31.995Z,1.09
2022-11-27T07:40:00.995Z,1.47
2022-11-27T07:43:04.463Z,1.49
2022-11-27T07:46:15.104Z,2.03
2022-11-27T07:49:21.812Z,1.49
2022-11-27T07:52:28.691Z,1.68
2022-11-27T07:55:34.865Z,1.68
2022-11-27T07:58:41.266Z,2.15
2022-11-27T08:01:49.384Z,1.91
2022-11-27T08:05:12.713Z,2.31
2022-11-27T08:08:19.809Z,2.53
2022-11-27T08:11:29.784Z,2.45
2022-11-27T08:14:36.328Z,2.58
2022-11-27T08:17:44.264Z,2.63
2022-11-27T08:20:50.800Z,3.03
2022-11-27T08:23:58.276Z,2.85
2022-11-27T08:27:04.981Z,3.04
2022-11-27T08:30:11.684Z,3.47
2022-11-27T08:33:30.086Z,3.76
2022-11-27T08:36:50.063Z,4.13
2022-11-27T08:39:56.092Z,3.88
2022-11-27T08:43:02.611Z,3.46
2022-11-27T08:46:09.628Z,4.34
2022-11-27T08:49:17.315Z,4.47
2022-11-27T08:52:23.376Z,4.33
2022-11-27T08:55:29.844Z,4.37
2022-11-27T08:58:36.327Z,4.57
2022-11-27T09:01:42.506Z,4.80
2022-11-27T09:04:50.100Z,4.63
2022-11-27T09:07:56.930Z,4.89
2022-11-27T09:11:04.385Z,4.67
2022-11-27T09:14:10.797Z,5.35
2022-11-27T09:17:17.269Z,4.99
2022-11-27T09:20:24.932Z,5.15
2022-11-27T09:23:31.525Z,5.68
2022-11-27T09:26:38.058Z,5.55
2022-11-27T09:29:44.385Z,5.91
2022-11-27T09:32:50.725Z,5.96
2022-11-27T09:35:58.610Z,5.59
2022-11-27T09:39:05.320Z,6.40
2022-11-27T09:42:34.545Z,6.08
2022-11-27T09:45:46.118Z,6.23
2022-11-27T09:48:54.688Z,6.77
2022-11-27T09:52:08.190Z,6.63
2022-11-27T09:55:19.288Z,6.23
2022-11-27T09:58:39.001Z,6.86
2022-11-27T10:01:50.676Z,7.01
2022-11-27T10:05:13.336Z,6.96
2022-11-27T10:08:31.392Z,6.39
2022-11-27T10:11:49.004Z,6.88
2022-11-27T10:15:06.442Z,6.76
2022-11-27T10:18:22.364Z,6.47
2022-11-27T10:21:51.671Z,6.89
2022-11-27T10:25:08.597Z,6.78
2022-11-27T10:28:27.777Z,6.86
2022-11-27T10:31:38.427Z,6.74
2022-11-27T10:34:48.574Z,7.14
2022-11-27T10:38:01.049Z,7.20
2022-11-27T10:41:47.564Z,7.24
2022-11-27T10:44:50.180Z,7.42
2022-11-27T10:47:56.605Z,7.22
2022-11-27T10:51:02.929Z,6.93
2022-11-27T10:54:21.649Z,7.84
2022-11-27T10:57:47.745Z,7.75
2022-11-27T11:01:02.239Z,7.35
2022-11-27T11:04:35.960Z,7.58
2022-11-27T11:07:50.299Z,7.46
2022-11-27T11:11:00.344Z,7.46
2022-11-27T11:14:17.290Z,7.64
2022-11-27T11:17:27.989Z,7.56
2022-11-27T11:20:34.805Z,7.71
2022-11-27T11:23:42.542Z,7.61
2022-11-27T11:26:51.123Z,7.57
2022-11-27T11:30:01.830Z,8.03
2022-11-27T11:33:12.899Z,7.97
2022-11-27T11:36:19.636Z,7.45
2022-11-27T11:39:29.012Z,8.01
2022-11-27T11:42:38.377Z,7.75
2022-11-27T11:45:49.058Z,7.55
2022-11-27T11:49:01.447Z,7.73
2022-11-27T11:52:25.312Z,7.37
2022-11-27T11:55:40.530Z,7.62
2022-11-27T11:58:57.343Z,7.78
2022-11-27T12:02:26.636Z,7.52
2022-11-27T12:05:41.724Z,8.06
2022-11-27T12:09:08.809Z,8.11
2022-11-27T12:12:28.400Z,7.84
2022-11-27T12:15:39.668Z,7.84
2022-11-27T12:19:04.001Z,8.03
2022-11-27T12:22:23.569Z,7.82
2022-11-27T12:25:34.619Z,7.69
2022-11-27T12:28:59.783Z,7.31
2022-11-27T12:32:33.036Z,8.01
2022-11-27T12:35:46.075Z,8.12
2022-11-27T12:39:12.067Z,7.42
2022-11-27T12:42:25.192Z,7.65
2022-11-27T12:45:36.442Z,8.05
2022-11-27T12:48:47.598Z,7.90
2022-11-27T12:52:00.666Z,7.66
2022-11-27T12:55:12.551Z,7.61
2022-11-27T12:58:27.136Z,7.97
2022-11-27T13:01:40.824Z,7.44
2022-11-27T13:04:53.068Z,7.26
2022-11-27T13:08:03.636Z,7.16
2022-11-27T13:11:13.889Z,7.27
2022-11-27T13:14:24.126Z,7.07
2022-11-27T13:17:36.739Z,7.04
2022-11-27T13:20:45.526Z,6.97
2022-11-27T13:23:56.038Z,6.74
2022-11-27T13:27:07.745Z,6.81
2022-11-27T13:30:22.065Z,6.90
2022-11-27T13:33:37.017Z,6.58
2022-11-27T13:36:46.057Z,6.68
2022-11-27T13:40:01.434Z,6.48
2022-11-27T13:43:20.502Z,6.28
2022-11-27T13:46:29.402Z,6.38
2022-11-27T13:49:38.036Z,5.98
2022-11-27T13:52:57.400Z,5.89
2022-11-27T13:56:06.596Z,5.74
2022-11-27T13:59:17.806Z,5.75
2022-11-27T14:02:24.182Z,5.80
2022-11-27T14:05:41.390Z,5.62
2022-11-27T14:08:57.248Z,5.60
2022-11-27T14:12:18.049Z,5.66
2022-11-27T14:15:40.332Z,5.61
2022-11-27T14:18:52.304Z,5.51
2022-11-27T14:21:58.368Z,5.44
2022-11-27T14:25:21.381Z,5.49
2022-11-27T14:28:31.388Z,5.32
2022-11-27T14:31:37.693Z,5.31
2022-11-27T14:34:44.301Z,5.28
2022-11-27T14:37:50.709Z,5.35
2022-11-27T14:41:09.678Z,5.33
2022-11-27T14:44:30.893Z,5.25
2022-11-27T14:47:39.844Z,5.23
2022-11-27T14:51:00.205Z,5.26
2022-11-27T14:54:12.204Z,5.16
2022-11-27T14:57:24.977Z,5.09
2022-11-27T15:00:32.940Z,5.01
2022-11-27T15:03:39.257Z,4.95
2022-11-27T15:06:47.472Z,5.01
2022-11-27T15:09:56.273Z,4.84
2022-11-27T15:13:04.951Z,4.96
2022-11-27T15:16:17.771Z,4.95
2022-11-27T15:19:30.762Z,5.03
2022-11-27T15:22:38.487Z,4.90
2022-11-27T15:25:47.111Z,4.74
2022-11-27T15:28:54.906Z,4.83
2022-11-27T15:32:21.870Z,4.76
2022-11-27T15:35:46.982Z,4.61
2022-11-27T15:39:06.981Z,4.74
2022-11-27T15:42:14.714Z,4.85
2022-11-27T15:45:21.100Z,4.65
2022-11-27T15:48:28.931Z,4.50
2022-11-27T15:51:35.074Z,4.39
2022-11-27T15:54:41.436Z,4.46
2022-11-27T15:57:47.853Z,4.37
2022-11-27T16:00:54.470Z,4.37
2022-11-27T16:04:02.256Z,4.51
2022-11-27T16:07:08.561Z,4.66
2022-11-27T16:10:14.857Z,4.22
2022-11-27T16:13:20.867Z,4.28
2022-11-27T16:16:27.744Z,4.27
2022-11-27T16:19:35.517Z,4.29
2022-11-27T16:22:41.460Z,4.43
2022-11-27T16:25:47.828Z,4.16
2022-11-27T16:28:54.098Z,4.27
2022-11-27T16:32:01.402Z,4.31
2022-11-27T16:35:09.972Z,4.18
2022-11-27T16:38:16.299Z,4.34
2022-11-27T16:41:24.136Z,4.19
2022-11-27T16:44:30.282Z,4.19
2022-11-27T16:47:36.470Z,4.22
2022-11-27T16:50:46.806Z,4.02
2022-11-27T16:53:54.800Z,4.01
2022-11-27T16:57:01.151Z,3.92
2022-11-27T17:00:09.044Z,3.88
2022-11-27T17:03:15.041Z,4.16
2022-11-27T17:06:24.405Z,4.00
2022-11-27T17:09:31.573Z,3.75
2022-11-27T17:12:38.353Z,3.88
2022-11-27T17:15:58.928Z,3.79
2022-11-27T17:19:05.831Z,3.64
2022-11-27T17:22:13.511Z,3.78
2022-11-27T17:25:19.933Z,3.88
2022-11-27T17:28:26.137Z,3.68
2022-11-27T17:31:35.586Z,3.79
2022-11-27T17:34:42.290Z,3.49
2022-11-27T17:37:50.221Z,3.47
2022-11-27T17:41:01.578Z,3.71
2022-11-27T17:44:08.767Z,3.72
2022-11-27T17:47:15.113Z,3.79
2022-11-27T17:50:21.534Z,3.70
2022-11-27T17:53:29.935Z,3.65
2022-11-27T17:56:36.447Z,3.31
2022-11-27T17:59:43.057Z,3.28
2022-11-27T18:02:49.592Z,3.48
2022-11-27T18:05:56.879Z,3.53
2022-11-27T18:09:05.068Z,3.48
2022-11-27T18:12:11.638Z,3.37
2022-11-27T18:15:29.214Z,3.59
2022-11-27T18:18:49.213Z,3.42
2022-11-27T18:21:55.499Z,3.47
2022-11-27T18:25:03.123Z,3.74
2022-11-27T18:28:09.278Z,3.81
2022-11-27T18:31:17.164Z,3.82
2022-11-27T18:34:23.443Z,3.68
2022-11-27T18:37:30.074Z,3.49
2022-11-27T18:40:41.469Z,3.47
2022-11-27T18:43:49.456Z,3.94
2022-11-27T18:46:55.791Z,3.83
2022-11-27T18:50:03.747Z,3.74
2022-11-27T18:53:10.349Z,3.74
2022-11-27T18:56:21.059Z,3.49
2022-11-27T18:59:27.658Z,3.65
2022-11-27T19:02:33.792Z,3.62
2022-11-27T19:05:50.389Z,3.78
2022-11-27T19:08:57.729Z,3.80
2022-11-27T19:12:06.201Z,3.63
2022-11-27T19:15:12.806Z,3.80
2022-11-27T19:18:19.493Z,3.88
2022-11-27T19:21:29.289Z,3.58
2022-11-27T19:24:35.908Z,3.72
2022-11-27T19:27:43.570Z,3.71
2022-11-27T19:30:50.229Z,3.81
2022-11-27T19:33:58.896Z,3.63
2022-11-27T19:37:33.572Z,3.72
2022-11-27T19:40:41.632Z,3.40
2022-11-27T19:43:49.236Z,3.46
2022-11-27T19:46:55.378Z,3.41
2022-11-27T19:50:01.442Z,3.53
2022-11-27T19:53:07.726Z,3.25
2022-11-27T19:56:27.857Z,3.31
2022-11-27T19:59:35.730Z,3.19
2022-11-27T20:02:42.572Z,3.14
2022-11-27T20:05:48.986Z,3.19
2022-11-27T20:09:01.074Z,3.13
2022-11-27T20:12:07.573Z,3.12
2022-11-27T20:15:16.956Z,2.95
2022-11-27T20:18:23.365Z,2.82
2022-11-27T20:21:29.601Z,3.11
2022-11-27T20:24:44.123Z,3.12
2022-11-27T20:28:02.126Z,3.17
2022-11-27T20:31:15.098Z,3.23
2022-11-27T20:34:37.096Z,3.17
2022-11-27T20:37:43.634Z,3.15
2022-11-27T20:40:50.354Z,3.23
2022-11-27T20:43:57.914Z,3.00
2022-11-27T20:47:05.673Z,2.89
2022-11-27T20:50:13.063Z,2.71
2022-11-27T20:53:19.827Z,2.65
2022-11-27T20:56:26.857Z,2.72
2022-11-27T20:59:32.966Z,2.75
2022-11-27T21:02:41.897Z,2.94
2022-11-27T21:05:48.339Z,2.81
2022-11-27T21:08:55.290Z,2.90
2022-11-27T21:12:02.148Z,2.80
2022-11-27T21:15:09.640Z,2.86
2022-11-27T21:18:17.496Z,2.74
2022-11-27T21:21:23.964Z,2.85
2022-11-27T21:24:30.396Z,2.47
2022-11-27T21:27:37.482Z,2.52
2022-11-27T21:30:43.687Z,2.63
2022-11-27T21:33:53.136Z,2.55
2022-11-27T21:36:59.351Z,2.54
2022-11-27T21:40:08.335Z,2.62
2022-11-27T21:43:14.642Z,2.41
2022-11-27T21:46:22.657Z,2.35
2022-11-27T21:49:30.457Z,2.35
2022-11-27T21:52:36.861Z,2.25
2022-11-27T21:55:43.797Z,2.31
2022-11-27T21:58:50.858Z,2.23
2022-11-27T22:01:58.268Z,2.49
2022-11-27T22:05:07.220Z,2.42
2022-11-27T22:08:13.865Z,2.48
2022-11-27T22:11:23.992Z,2.33
2022-11-27T22:14:30.116Z,2.37
2022-11-27T22:17:36.337Z,2.16
2022-11-27T22:20:44.328Z,2.00
2022-11-27T22:23:50.786Z,1.95
2022-11-27T22:26:57.062Z,1.82
2022-11-27T22:30:03.577Z,2.28
2022-11-27T22:33:09.789Z,2.38
2022-11-27T22:36:20.398Z,2.13
2022-11-27T22:39:26.480Z,1.91
2022-11-27T22:42:32.797Z,2.32
2022-11-27T22:45:41.716Z,2.23
2022-11-27T22:48:48.068Z,2.10
2022-11-27T22:51:55.709Z,2.05
2022-11-27T22:55:02.239Z,1.82
2022-11-27T22:58:09.463Z,2.18
2022-11-27T23:01:17.707Z,1.88
2022-11-27T23:04:23.939Z,1.89
2022-11-27T23:07:32.073Z,2.11
2022-11-27T23:10:40.257Z,2.19
2022-11-27T23:14:00.348Z,1.91
2022-11-27T23:17:06.664Z,1.79
2022-11-27T23:20:13.809Z,2.01
2022-11-27T23:23:21.448Z,1.91
2022-11-27T23:26:27.904Z,2.22
2022-11-27T23:29:33.992Z,2.43
2022-11-27T23:32:40.442Z,2.29
2022-11-27T23:35:46.780Z,2.01
2022-11-27T23:38:54.509Z,1.65
2022-11-27T23:42:14.327Z,1.75
2022-11-27T23:45:20.621Z,2.19
2022-11-27T23:48:26.973Z,2.14
2022-11-27T23:51:34.584Z,1.89
2022-11-27T23:54:42.412Z,2.16
2022-11-27T23:57:49.103Z,2.19
